sensor_id;sensor_type;location;lat;lon;timestamp;temperature;humidity
36652;DHT22;53334;51.976;20.144;2023-03-23T00:01:57;25.80;52.90
36652;DHT22;53334;51.976;20.144;2023-03-23T00:04:31;25.80;52.90
36652;DHT22;53334;51.976;20.144;2023-03-23T00:07:03;25.80;53.00
36652;DHT22;53334;51.976;20.144;2023-03-23T00:09:36;25.80;53.00
36652;DHT22;53334;51.976;20.144;2023-03-23T00:12:12;25.80;53.10
36652;DHT22;53334;51.976;20.144;2023-03-23T00:14:46;25.80;53.10
36652;DHT22;53334;51.976;20.144;2023-03-23T00:17:19;25.80;53.10
36652;DHT22;53334;51.976;20.144;2023-03-23T00:19:51;25.80;53.10
36652;DHT22;53334;51.976;20.144;2023-03-23T00:22:23;25.80;53.10
36652;DHT22;53334;51.976;20.144;2023-03-23T00:24:57;25.80;53.10
36652;DHT22;53334;51.976;20.144;2023-03-23T00:27:29;25.80;53.20
36652;DHT22;53334;51.976;20.144;2023-03-23T00:30:02;25.80;53.10
36652;DHT22;53334;51.976;20.144;2023-03-23T00:32:34;25.80;53.10
36652;DHT22;53334;51.976;20.144;2023-03-23T00:35:08;25.80;53.10
36652;DHT22;53334;51.976;20.144;2023-03-23T00:37:40;25.80;53.10
36652;DHT22;53334;51.976;20.144;2023-03-23T00:40:15;25.80;53.10
36652;DHT22;53334;51.976;20.144;2023-03-23T00:42:49;25.80;53.10
36652;DHT22;53334;51.976;20.144;2023-03-23T00:45:22;25.80;53.20
36652;DHT22;53334;51.976;20.144;2023-03-23T00:47:55;25.80;53.20
36652;DHT22;53334;51.976;20.144;2023-03-23T00:50:34;25.80;53.20
36652;DHT22;53334;51.976;20.144;2023-03-23T00:53:08;25.80;53.30
36652;DHT22;53334;51.976;20.144;2023-03-23T00:55:43;25.80;53.30
36652;DHT22;53334;51.976;20.144;2023-03-23T00:58:16;25.80;53.40
36652;DHT22;53334;51.976;20.144;2023-03-23T01:00:49;25.80;53.30
36652;DHT22;53334;51.976;20.144;2023-03-23T01:03:22;25.80;53.30
36652;DHT22;53334;51.976;20.144;2023-03-23T01:05:57;25.80;53.30
36652;DHT22;53334;51.976;20.144;2023-03-23T01:08:29;25.80;53.90
36652;DHT22;53334;51.976;20.144;2023-03-23T01:11:06;25.80;54.90
36652;DHT22;53334;51.976;20.144;2023-03-23T01:13:38;25.80;55.50
36652;DHT22;53334;51.976;20.144;2023-03-23T01:16:12;25.80;55.50
36652;DHT22;53334;51.976;20.144;2023-03-23T01:18:44;25.80;55.50
36652;DHT22;53334;51.976;20.144;2023-03-23T01:21:18;25.80;55.40
36652;DHT22;53334;51.976;20.144;2023-03-23T01:23:51;25.80;55.20
36652;DHT22;53334;51.976;20.144;2023-03-23T01:26:26;25.80;55.20
36652;DHT22;53334;51.976;20.144;2023-03-23T01:28:59;25.80;55.10
36652;DHT22;53334;51.976;20.144;2023-03-23T01:31:32;25.80;55.00
36652;DHT22;53334;51.976;20.144;2023-03-23T01:34:08;25.80;55.10
36652;DHT22;53334;51.976;20.144;2023-03-23T01:36:42;25.80;55.20
36652;DHT22;53334;51.976;20.144;2023-03-23T01:39:14;25.80;55.30
36652;DHT22;53334;51.976;20.144;2023-03-23T01:41:49;25.80;55.50
36652;DHT22;53334;51.976;20.144;2023-03-23T01:47:35;25.80;55.80
36652;DHT22;53334;51.976;20.144;2023-03-23T01:50:10;25.80;55.80
36652;DHT22;53334;51.976;20.144;2023-03-23T01:52:45;25.80;55.90
36652;DHT22;53334;51.976;20.144;2023-03-23T01:55:18;25.80;55.90
36652;DHT22;53334;51.976;20.144;2023-03-23T01:57:55;25.80;56.00
36652;DHT22;53334;51.976;20.144;2023-03-23T02:00:28;25.80;56.10
36652;DHT22;53334;51.976;20.144;2023-03-23T02:03:01;25.80;56.20
36652;DHT22;53334;51.976;20.144;2023-03-23T02:05:39;25.80;56.30
36652;DHT22;53334;51.976;20.144;2023-03-23T02:08:26;25.80;56.30
36652;DHT22;53334;51.976;20.144;2023-03-23T02:10:59;25.80;56.40
36652;DHT22;53334;51.976;20.144;2023-03-23T02:13:34;25.80;56.40
36652;DHT22;53334;51.976;20.144;2023-03-23T02:16:09;25.80;56.40
36652;DHT22;53334;51.976;20.144;2023-03-23T02:18:57;25.80;56.50
36652;DHT22;53334;51.976;20.144;2023-03-23T02:22:02;25.80;56.60
36652;DHT22;53334;51.976;20.144;2023-03-23T02:24:57;25.80;56.60
36652;DHT22;53334;51.976;20.144;2023-03-23T02:28:05;25.80;56.60
36652;DHT22;53334;51.976;20.144;2023-03-23T02:30:52;25.80;56.70
36652;DHT22;53334;51.976;20.144;2023-03-23T02:33:46;25.80;56.80
36652;DHT22;53334;51.976;20.144;2023-03-23T02:36:25;25.80;56.90
36652;DHT22;53334;51.976;20.144;2023-03-23T02:39:03;25.80;56.80
36652;DHT22;53334;51.976;20.144;2023-03-23T02:41:40;25.80;56.80
36652;DHT22;53334;51.976;20.144;2023-03-23T02:44:15;25.80;57.00
36652;DHT22;53334;51.976;20.144;2023-03-23T02:46:51;25.80;57.10
36652;DHT22;53334;51.976;20.144;2023-03-23T02:49:28;25.80;57.20
36652;DHT22;53334;51.976;20.144;2023-03-23T02:52:08;25.80;57.20
36652;DHT22;53334;51.976;20.144;2023-03-23T02:54:44;25.80;57.20
36652;DHT22;53334;51.976;20.144;2023-03-23T02:57:18;25.80;57.20
36652;DHT22;53334;51.976;20.144;2023-03-23T02:59:50;25.80;57.10
36652;DHT22;53334;51.976;20.144;2023-03-23T03:02:23;25.80;57.10
36652;DHT22;53334;51.976;20.144;2023-03-23T03:05:04;25.80;57.10
36652;DHT22;53334;51.976;20.144;2023-03-23T03:07:49;25.80;57.20
36652;DHT22;53334;51.976;20.144;2023-03-23T03:10:26;25.80;57.20
36652;DHT22;53334;51.976;20.144;2023-03-23T03:13:04;25.80;57.20
36652;DHT22;53334;51.976;20.144;2023-03-23T03:15:43;25.80;57.20
36652;DHT22;53334;51.976;20.144;2023-03-23T03:18:20;25.80;57.30
36652;DHT22;53334;51.976;20.144;2023-03-23T03:20:59;25.80;57.30
36652;DHT22;53334;51.976;20.144;2023-03-23T03:23:34;25.80;57.30
36652;DHT22;53334;51.976;20.144;2023-03-23T03:26:12;25.80;57.30
36652;DHT22;53334;51.976;20.144;2023-03-23T03:28:54;25.80;57.40
36652;DHT22;53334;51.976;20.144;2023-03-23T03:31:30;25.80;57.40
36652;DHT22;53334;51.976;20.144;2023-03-23T03:34:04;25.90;57.50
36652;DHT22;53334;51.976;20.144;2023-03-23T03:36:41;25.80;57.40
36652;DHT22;53334;51.976;20.144;2023-03-23T03:39:15;25.80;57.40
36652;DHT22;53334;51.976;20.144;2023-03-23T03:41:48;25.80;57.40
36652;DHT22;53334;51.976;20.144;2023-03-23T03:44:21;25.80;57.30
36652;DHT22;53334;51.976;20.144;2023-03-23T03:46:53;25.80;57.30
36652;DHT22;53334;51.976;20.144;2023-03-23T03:49:26;25.80;57.30
36652;DHT22;53334;51.976;20.144;2023-03-23T03:52:00;25.80;57.30
36652;DHT22;53334;51.976;20.144;2023-03-23T03:54:43;25.80;57.20
36652;DHT22;53334;51.976;20.144;2023-03-23T03:57:16;25.90;57.30
36652;DHT22;53334;51.976;20.144;2023-03-23T04:00:08;25.90;57.30
36652;DHT22;53334;51.976;20.144;2023-03-23T04:02:47;25.80;57.20
36652;DHT22;53334;51.976;20.144;2023-03-23T04:05:28;25.80;57.20
36652;DHT22;53334;51.976;20.144;2023-03-23T04:08:03;25.80;57.20
36652;DHT22;53334;51.976;20.144;2023-03-23T04:10:37;25.80;57.20
36652;DHT22;53334;51.976;20.144;2023-03-23T04:13:11;25.80;57.20
36652;DHT22;53334;51.976;20.144;2023-03-23T04:16:10;25.90;57.30
36652;DHT22;53334;51.976;20.144;2023-03-23T04:18:43;25.80;57.20
36652;DHT22;53334;51.976;20.144;2023-03-23T04:21:19;25.80;57.20
36652;DHT22;53334;51.976;20.144;2023-03-23T04:23:55;25.80;57.20
36652;DHT22;53334;51.976;20.144;2023-03-23T04:26:31;25.80;57.20
36652;DHT22;53334;51.976;20.144;2023-03-23T04:29:10;25.90;57.30
36652;DHT22;53334;51.976;20.144;2023-03-23T04:32:04;25.90;57.40
36652;DHT22;53334;51.976;20.144;2023-03-23T04:34:42;25.90;57.40
36652;DHT22;53334;51.976;20.144;2023-03-23T04:37:15;25.90;57.50
36652;DHT22;53334;51.976;20.144;2023-03-23T04:39:49;25.90;57.50
36652;DHT22;53334;51.976;20.144;2023-03-23T04:42:31;25.90;57.50
36652;DHT22;53334;51.976;20.144;2023-03-23T04:45:29;25.90;57.20
36652;DHT22;53334;51.976;20.144;2023-03-23T04:48:05;25.90;57.40
36652;DHT22;53334;51.976;20.144;2023-03-23T04:50:46;25.80;57.40
36652;DHT22;53334;51.976;20.144;2023-03-23T04:53:28;25.90;57.50
36652;DHT22;53334;51.976;20.144;2023-03-23T04:56:02;25.90;57.50
36652;DHT22;53334;51.976;20.144;2023-03-23T04:58:41;25.90;57.50
36652;DHT22;53334;51.976;20.144;2023-03-23T05:01:37;25.90;57.50
36652;DHT22;53334;51.976;20.144;2023-03-23T05:04:19;25.90;57.50
36652;DHT22;53334;51.976;20.144;2023-03-23T05:07:14;25.90;57.40
36652;DHT22;53334;51.976;20.144;2023-03-23T05:09:49;25.90;57.50
36652;DHT22;53334;51.976;20.144;2023-03-23T05:12:27;25.90;57.50
36652;DHT22;53334;51.976;20.144;2023-03-23T05:15:08;25.90;57.50
36652;DHT22;53334;51.976;20.144;2023-03-23T05:17:40;25.90;57.50
36652;DHT22;53334;51.976;20.144;2023-03-23T05:20:18;25.90;57.60
36652;DHT22;53334;51.976;20.144;2023-03-23T05:22:58;25.80;57.50
36652;DHT22;53334;51.976;20.144;2023-03-23T05:25:37;25.90;57.60
36652;DHT22;53334;51.976;20.144;2023-03-23T05:28:31;25.90;57.70
36652;DHT22;53334;51.976;20.144;2023-03-23T05:31:17;25.90;57.80
36652;DHT22;53334;51.976;20.144;2023-03-23T05:33:50;25.90;57.80
36652;DHT22;53334;51.976;20.144;2023-03-23T05:36:35;25.90;57.80
36652;DHT22;53334;51.976;20.144;2023-03-23T05:39:11;25.90;57.70
36652;DHT22;53334;51.976;20.144;2023-03-23T05:42:23;25.90;57.70
36652;DHT22;53334;51.976;20.144;2023-03-23T05:45:19;25.90;57.50
36652;DHT22;53334;51.976;20.144;2023-03-23T05:47:54;25.90;57.50
36652;DHT22;53334;51.976;20.144;2023-03-23T05:50:30;25.90;57.50
36652;DHT22;53334;51.976;20.144;2023-03-23T05:53:02;26.00;57.60
36652;DHT22;53334;51.976;20.144;2023-03-23T05:55:38;26.00;57.50
36652;DHT22;53334;51.976;20.144;2023-03-23T05:58:26;26.00;57.50
36652;DHT22;53334;51.976;20.144;2023-03-23T06:01:00;26.00;57.50
36652;DHT22;53334;51.976;20.144;2023-03-23T06:03:34;26.00;57.30
36652;DHT22;53334;51.976;20.144;2023-03-23T06:06:17;26.00;57.40
36652;DHT22;53334;51.976;20.144;2023-03-23T06:09:01;26.00;57.30
36652;DHT22;53334;51.976;20.144;2023-03-23T06:11:50;26.00;57.50
36652;DHT22;53334;51.976;20.144;2023-03-23T06:14:41;26.10;57.70
36652;DHT22;53334;51.976;20.144;2023-03-23T06:17:16;26.00;57.60
36652;DHT22;53334;51.976;20.144;2023-03-23T06:19:50;26.00;57.60
36652;DHT22;53334;51.976;20.144;2023-03-23T06:22:23;26.00;58.10
36652;DHT22;53334;51.976;20.144;2023-03-23T06:25:19;26.00;57.60
36652;DHT22;53334;51.976;20.144;2023-03-23T06:27:52;26.10;57.60
36652;DHT22;53334;51.976;20.144;2023-03-23T06:30:26;26.00;57.70
36652;DHT22;53334;51.976;20.144;2023-03-23T06:33:03;26.00;57.90
36652;DHT22;53334;51.976;20.144;2023-03-23T06:35:54;26.00;57.70
36652;DHT22;53334;51.976;20.144;2023-03-23T06:38:49;26.10;57.70
36652;DHT22;53334;51.976;20.144;2023-03-23T06:41:27;26.10;57.70
36652;DHT22;53334;51.976;20.144;2023-03-23T06:44:00;26.10;57.50
36652;DHT22;53334;51.976;20.144;2023-03-23T06:46:35;26.10;58.00
36652;DHT22;53334;51.976;20.144;2023-03-23T06:49:29;26.10;57.20
36652;DHT22;53334;51.976;20.144;2023-03-23T06:52:18;26.10;57.20
36652;DHT22;53334;51.976;20.144;2023-03-23T06:54:51;26.00;57.00
36652;DHT22;53334;51.976;20.144;2023-03-23T06:57:24;26.00;57.00
36652;DHT22;53334;51.976;20.144;2023-03-23T06:59:57;26.00;57.00
36652;DHT22;53334;51.976;20.144;2023-03-23T07:02:30;26.00;56.90
36652;DHT22;53334;51.976;20.144;2023-03-23T07:05:05;26.00;56.90
36652;DHT22;53334;51.976;20.144;2023-03-23T07:07:39;26.00;56.70
36652;DHT22;53334;51.976;20.144;2023-03-23T07:10:24;26.00;56.60
36652;DHT22;53334;51.976;20.144;2023-03-23T07:12:57;26.00;56.50
36652;DHT22;53334;51.976;20.144;2023-03-23T07:15:31;26.10;56.50
36652;DHT22;53334;51.976;20.144;2023-03-23T07:18:03;26.00;56.60
36652;DHT22;53334;51.976;20.144;2023-03-23T07:20:43;26.00;56.50
36652;DHT22;53334;51.976;20.144;2023-03-23T07:23:19;26.00;56.50
36652;DHT22;53334;51.976;20.144;2023-03-23T07:25:59;26.00;56.50
36652;DHT22;53334;51.976;20.144;2023-03-23T07:28:40;26.00;56.40
36652;DHT22;53334;51.976;20.144;2023-03-23T07:31:27;26.00;57.60
36652;DHT22;53334;51.976;20.144;2023-03-23T07:34:01;26.00;59.00
36652;DHT22;53334;51.976;20.144;2023-03-23T07:36:45;26.00;59.10
36652;DHT22;53334;51.976;20.144;2023-03-23T07:39:18;26.10;59.00
36652;DHT22;53334;51.976;20.144;2023-03-23T07:41:57;26.10;59.00
36652;DHT22;53334;51.976;20.144;2023-03-23T07:44:41;26.10;58.80
36652;DHT22;53334;51.976;20.144;2023-03-23T07:47:16;26.10;58.60
36652;DHT22;53334;51.976;20.144;2023-03-23T07:49:52;26.10;58.30
36652;DHT22;53334;51.976;20.144;2023-03-23T07:52:43;26.10;59.10
36652;DHT22;53334;51.976;20.144;2023-03-23T07:55:15;26.10;59.60
36652;DHT22;53334;51.976;20.144;2023-03-23T07:58:12;26.10;60.20
36652;DHT22;53334;51.976;20.144;2023-03-23T08:00:49;26.10;60.00
36652;DHT22;53334;51.976;20.144;2023-03-23T08:03:24;26.10;60.10
36652;DHT22;53334;51.976;20.144;2023-03-23T08:06:15;26.10;60.20
36652;DHT22;53334;51.976;20.144;2023-03-23T08:08:57;26.10;60.40
36652;DHT22;53334;51.976;20.144;2023-03-23T08:11:49;26.10;60.30
36652;DHT22;53334;51.976;20.144;2023-03-23T08:14:41;26.10;59.60
36652;DHT22;53334;51.976;20.144;2023-03-23T08:17:33;26.10;59.40
36652;DHT22;53334;51.976;20.144;2023-03-23T08:20:32;26.10;59.20
36652;DHT22;53334;51.976;20.144;2023-03-23T08:23:37;26.10;59.20
36652;DHT22;53334;51.976;20.144;2023-03-23T08:26:31;26.10;59.10
36652;DHT22;53334;51.976;20.144;2023-03-23T08:29:20;26.10;58.70
36652;DHT22;53334;51.976;20.144;2023-03-23T08:31:53;26.10;58.20
36652;DHT22;53334;51.976;20.144;2023-03-23T08:34:36;26.10;56.60
36652;DHT22;53334;51.976;20.144;2023-03-23T08:37:08;26.10;55.50
36652;DHT22;53334;51.976;20.144;2023-03-23T08:39:59;26.10;54.70
36652;DHT22;53334;51.976;20.144;2023-03-23T08:42:57;26.10;53.80
36652;DHT22;53334;51.976;20.144;2023-03-23T08:46:02;26.00;53.40
36652;DHT22;53334;51.976;20.144;2023-03-23T08:49:00;26.00;53.50
36652;DHT22;53334;51.976;20.144;2023-03-23T08:51:38;26.00;53.40
36652;DHT22;53334;51.976;20.144;2023-03-23T08:54:37;26.00;53.00
36652;DHT22;53334;51.976;20.144;2023-03-23T08:57:48;26.00;52.90
36652;DHT22;53334;51.976;20.144;2023-03-23T09:00:48;26.00;53.00
36652;DHT22;53334;51.976;20.144;2023-03-23T09:03:32;26.00;52.80
36652;DHT22;53334;51.976;20.144;2023-03-23T09:06:32;26.00;52.70
36652;DHT22;53334;51.976;20.144;2023-03-23T09:09:05;26.00;52.40
36652;DHT22;53334;51.976;20.144;2023-03-23T09:11:40;26.00;52.30
36652;DHT22;53334;51.976;20.144;2023-03-23T09:14:12;26.00;52.10
36652;DHT22;53334;51.976;20.144;2023-03-23T09:16:46;26.00;51.80
36652;DHT22;53334;51.976;20.144;2023-03-23T09:19:18;26.00;51.20
36652;DHT22;53334;51.976;20.144;2023-03-23T09:21:51;26.00;50.90
36652;DHT22;53334;51.976;20.144;2023-03-23T09:24:23;26.00;50.40
36652;DHT22;53334;51.976;20.144;2023-03-23T09:26:56;26.00;49.90
36652;DHT22;53334;51.976;20.144;2023-03-23T09:29:29;26.00;49.50
36652;DHT22;53334;51.976;20.144;2023-03-23T09:32:03;26.00;48.90
36652;DHT22;53334;51.976;20.144;2023-03-23T09:34:35;26.00;48.30
36652;DHT22;53334;51.976;20.144;2023-03-23T09:37:10;26.10;48.20
36652;DHT22;53334;51.976;20.144;2023-03-23T09:39:45;26.10;47.60
36652;DHT22;53334;51.976;20.144;2023-03-23T09:42:28;26.10;46.70
36652;DHT22;53334;51.976;20.144;2023-03-23T09:45:12;26.10;45.70
36652;DHT22;53334;51.976;20.144;2023-03-23T09:47:59;26.10;45.00
36652;DHT22;53334;51.976;20.144;2023-03-23T09:50:34;26.10;44.60
36652;DHT22;53334;51.976;20.144;2023-03-23T09:53:12;26.10;44.40
36652;DHT22;53334;51.976;20.144;2023-03-23T09:55:46;26.10;39.60
36652;DHT22;53334;51.976;20.144;2023-03-23T09:58:24;26.00;38.30
36652;DHT22;53334;51.976;20.144;2023-03-23T10:01:02;26.00;37.10
36652;DHT22;53334;51.976;20.144;2023-03-23T10:03:40;25.90;36.70
36652;DHT22;53334;51.976;20.144;2023-03-23T10:06:15;25.80;37.40
36652;DHT22;53334;51.976;20.144;2023-03-23T10:08:50;25.70;37.40
36652;DHT22;53334;51.976;20.144;2023-03-23T10:11:33;25.80;38.10
36652;DHT22;53334;51.976;20.144;2023-03-23T10:14:31;25.80;38.80
36652;DHT22;53334;51.976;20.144;2023-03-23T10:17:13;25.80;38.50
36652;DHT22;53334;51.976;20.144;2023-03-23T10:20:00;25.80;38.60
36652;DHT22;53334;51.976;20.144;2023-03-23T10:22:42;25.80;38.60
36652;DHT22;53334;51.976;20.144;2023-03-23T10:25:19;25.80;38.80
36652;DHT22;53334;51.976;20.144;2023-03-23T10:27:59;25.90;39.00
36652;DHT22;53334;51.976;20.144;2023-03-23T10:30:36;25.90;39.10
36652;DHT22;53334;51.976;20.144;2023-03-23T10:33:15;25.90;39.10
36652;DHT22;53334;51.976;20.144;2023-03-23T10:35:54;25.90;39.00
36652;DHT22;53334;51.976;20.144;2023-03-23T10:38:31;25.90;38.90
36652;DHT22;53334;51.976;20.144;2023-03-23T10:41:13;26.00;39.00
36652;DHT22;53334;51.976;20.144;2023-03-23T10:43:46;25.90;39.00
36652;DHT22;53334;51.976;20.144;2023-03-23T10:46:39;26.00;39.10
36652;DHT22;53334;51.976;20.144;2023-03-23T10:49:21;26.00;38.80
36652;DHT22;53334;51.976;20.144;2023-03-23T10:52:01;26.00;39.00
36652;DHT22;53334;51.976;20.144;2023-03-23T10:54:38;26.10;39.00
36652;DHT22;53334;51.976;20.144;2023-03-23T10:57:22;26.00;39.00
36652;DHT22;53334;51.976;20.144;2023-03-23T11:00:00;26.10;39.30
36652;DHT22;53334;51.976;20.144;2023-03-23T11:02:39;26.10;39.40
36652;DHT22;53334;51.976;20.144;2023-03-23T11:05:18;26.10;39.50
36652;DHT22;53334;51.976;20.144;2023-03-23T11:07:55;26.10;39.40
36652;DHT22;53334;51.976;20.144;2023-03-23T11:10:35;26.10;39.70
36652;DHT22;53334;51.976;20.144;2023-03-23T11:13:13;26.10;39.60
36652;DHT22;53334;51.976;20.144;2023-03-23T11:15:47;26.10;39.60
36652;DHT22;53334;51.976;20.144;2023-03-23T11:18:23;26.10;40.00
36652;DHT22;53334;51.976;20.144;2023-03-23T11:20:57;26.10;40.40
36652;DHT22;53334;51.976;20.144;2023-03-23T11:23:33;26.10;40.60
36652;DHT22;53334;51.976;20.144;2023-03-23T11:26:11;26.10;40.70
36652;DHT22;53334;51.976;20.144;2023-03-23T11:28:54;26.10;41.20
36652;DHT22;53334;51.976;20.144;2023-03-23T11:31:31;26.10;41.20
36652;DHT22;53334;51.976;20.144;2023-03-23T11:34:09;26.10;41.10
36652;DHT22;53334;51.976;20.144;2023-03-23T11:36:43;26.10;41.20
36652;DHT22;53334;51.976;20.144;2023-03-23T11:39:24;26.10;41.20
36652;DHT22;53334;51.976;20.144;2023-03-23T11:41:58;26.10;41.20
36652;DHT22;53334;51.976;20.144;2023-03-23T11:44:33;26.10;41.00
36652;DHT22;53334;51.976;20.144;2023-03-23T11:47:16;26.10;40.90
36652;DHT22;53334;51.976;20.144;2023-03-23T11:49:55;26.10;40.70
36652;DHT22;53334;51.976;20.144;2023-03-23T11:52:36;26.10;40.70
36652;DHT22;53334;51.976;20.144;2023-03-23T11:55:15;26.10;40.70
36652;DHT22;53334;51.976;20.144;2023-03-23T11:57:49;26.10;40.70
36652;DHT22;53334;51.976;20.144;2023-03-23T12:00:22;26.10;40.60
36652;DHT22;53334;51.976;20.144;2023-03-23T12:03:01;26.10;40.40
36652;DHT22;53334;51.976;20.144;2023-03-23T12:06:02;26.10;40.10
36652;DHT22;53334;51.976;20.144;2023-03-23T12:08:50;26.10;40.00
36652;DHT22;53334;51.976;20.144;2023-03-23T12:11:30;26.10;40.00
36652;DHT22;53334;51.976;20.144;2023-03-23T12:14:13;26.10;39.90
36652;DHT22;53334;51.976;20.144;2023-03-23T12:17:00;26.10;39.80
36652;DHT22;53334;51.976;20.144;2023-03-23T12:19:41;26.10;40.10
36652;DHT22;53334;51.976;20.144;2023-03-23T12:22:24;26.10;40.00
36652;DHT22;53334;51.976;20.144;2023-03-23T12:25:12;26.10;40.60
36652;DHT22;53334;51.976;20.144;2023-03-23T12:27:55;26.10;40.50
36652;DHT22;53334;51.976;20.144;2023-03-23T12:30:35;26.10;40.30
36652;DHT22;53334;51.976;20.144;2023-03-23T12:33:19;26.10;40.40
36652;DHT22;53334;51.976;20.144;2023-03-23T12:36:03;26.10;40.50
36652;DHT22;53334;51.976;20.144;2023-03-23T12:38:48;26.10;40.60
36652;DHT22;53334;51.976;20.144;2023-03-23T12:41:26;26.10;40.90
36652;DHT22;53334;51.976;20.144;2023-03-23T12:44:04;26.10;40.50
36652;DHT22;53334;51.976;20.144;2023-03-23T12:46:59;26.00;40.50
36652;DHT22;53334;51.976;20.144;2023-03-23T12:49:37;26.10;40.60
36652;DHT22;53334;51.976;20.144;2023-03-23T12:52:15;26.10;40.60
36652;DHT22;53334;51.976;20.144;2023-03-23T12:54:51;26.10;40.50
36652;DHT22;53334;51.976;20.144;2023-03-23T12:57:30;26.10;40.40
36652;DHT22;53334;51.976;20.144;2023-03-23T13:00:12;26.10;40.60
36652;DHT22;53334;51.976;20.144;2023-03-23T13:02:50;26.10;40.70
36652;DHT22;53334;51.976;20.144;2023-03-23T13:05:44;26.10;41.00
36652;DHT22;53334;51.976;20.144;2023-03-23T13:08:29;26.00;41.00
36652;DHT22;53334;51.976;20.144;2023-03-23T13:11:04;26.10;41.20
36652;DHT22;53334;51.976;20.144;2023-03-23T13:13:45;26.10;41.40
36652;DHT22;53334;51.976;20.144;2023-03-23T13:16:29;26.10;41.60
36652;DHT22;53334;51.976;20.144;2023-03-23T13:19:10;26.10;41.70
36652;DHT22;53334;51.976;20.144;2023-03-23T13:21:48;26.10;41.90
36652;DHT22;53334;51.976;20.144;2023-03-23T13:24:25;26.10;42.10
36652;DHT22;53334;51.976;20.144;2023-03-23T13:27:00;26.10;42.40
36652;DHT22;53334;51.976;20.144;2023-03-23T13:29:32;26.10;42.70
36652;DHT22;53334;51.976;20.144;2023-03-23T13:32:11;26.10;42.70
36652;DHT22;53334;51.976;20.144;2023-03-23T13:34:47;26.10;43.10
36652;DHT22;53334;51.976;20.144;2023-03-23T13:37:29;26.10;43.30
36652;DHT22;53334;51.976;20.144;2023-03-23T13:40:20;26.10;43.40
36652;DHT22;53334;51.976;20.144;2023-03-23T13:43:02;26.10;43.50
36652;DHT22;53334;51.976;20.144;2023-03-23T13:45:46;26.10;43.50
36652;DHT22;53334;51.976;20.144;2023-03-23T13:48:24;26.10;43.50
36652;DHT22;53334;51.976;20.144;2023-03-23T13:51:00;26.10;43.30
36652;DHT22;53334;51.976;20.144;2023-03-23T13:53:44;26.10;43.30
36652;DHT22;53334;51.976;20.144;2023-03-23T13:56:35;26.10;43.20
36652;DHT22;53334;51.976;20.144;2023-03-23T13:59:27;26.10;43.20
36652;DHT22;53334;51.976;20.144;2023-03-23T14:02:27;26.10;43.20
36652;DHT22;53334;51.976;20.144;2023-03-23T14:05:28;26.10;43.20
36652;DHT22;53334;51.976;20.144;2023-03-23T14:08:05;26.00;43.20
36652;DHT22;53334;51.976;20.144;2023-03-23T14:10:44;26.00;43.20
36652;DHT22;53334;51.976;20.144;2023-03-23T14:13:23;26.00;43.30
36652;DHT22;53334;51.976;20.144;2023-03-23T14:15:58;26.00;43.10
36652;DHT22;53334;51.976;20.144;2023-03-23T14:18:35;26.00;43.00
36652;DHT22;53334;51.976;20.144;2023-03-23T14:21:14;26.00;43.10
36652;DHT22;53334;51.976;20.144;2023-03-23T14:23:47;26.00;43.10
36652;DHT22;53334;51.976;20.144;2023-03-23T14:26:20;26.00;43.10
36652;DHT22;53334;51.976;20.144;2023-03-23T14:28:53;26.00;43.20
36652;DHT22;53334;51.976;20.144;2023-03-23T14:31:27;26.00;43.10
36652;DHT22;53334;51.976;20.144;2023-03-23T14:34:03;26.00;43.10
36652;DHT22;53334;51.976;20.144;2023-03-23T14:36:39;26.10;43.20
36652;DHT22;53334;51.976;20.144;2023-03-23T14:39:19;26.00;43.10
36652;DHT22;53334;51.976;20.144;2023-03-23T14:41:54;26.10;43.20
36652;DHT22;53334;51.976;20.144;2023-03-23T14:44:29;26.00;43.70
36652;DHT22;53334;51.976;20.144;2023-03-23T14:47:03;26.00;43.10
36652;DHT22;53334;51.976;20.144;2023-03-23T14:49:40;26.00;43.20
36652;DHT22;53334;51.976;20.144;2023-03-23T14:52:16;26.00;43.20
36652;DHT22;53334;51.976;20.144;2023-03-23T14:54:52;26.00;43.30
36652;DHT22;53334;51.976;20.144;2023-03-23T14:57:35;26.00;43.30
36652;DHT22;53334;51.976;20.144;2023-03-23T15:00:13;26.00;42.60
36652;DHT22;53334;51.976;20.144;2023-03-23T15:02:49;26.00;42.00
36652;DHT22;53334;51.976;20.144;2023-03-23T15:05:27;26.00;42.10
36652;DHT22;53334;51.976;20.144;2023-03-23T15:08:07;26.00;42.40
36652;DHT22;53334;51.976;20.144;2023-03-23T15:10:53;25.90;42.60
36652;DHT22;53334;51.976;20.144;2023-03-23T15:13:31;25.90;42.60
36652;DHT22;53334;51.976;20.144;2023-03-23T15:16:06;25.90;42.50
36652;DHT22;53334;51.976;20.144;2023-03-23T15:18:50;25.90;42.60
36652;DHT22;53334;51.976;20.144;2023-03-23T15:21:32;25.90;42.60
36652;DHT22;53334;51.976;20.144;2023-03-23T15:24:24;25.90;42.40
36652;DHT22;53334;51.976;20.144;2023-03-23T15:27:11;25.90;43.20
36652;DHT22;53334;51.976;20.144;2023-03-23T15:30:11;25.90;42.80
36652;DHT22;53334;51.976;20.144;2023-03-23T15:32:46;25.90;42.70
36652;DHT22;53334;51.976;20.144;2023-03-23T15:35:33;25.90;42.40
36652;DHT22;53334;51.976;20.144;2023-03-23T15:38:18;25.90;42.50
36652;DHT22;53334;51.976;20.144;2023-03-23T15:41:03;25.90;42.60
36652;DHT22;53334;51.976;20.144;2023-03-23T15:43:49;25.80;42.40
36652;DHT22;53334;51.976;20.144;2023-03-23T15:46:25;25.80;43.00
36652;DHT22;53334;51.976;20.144;2023-03-23T15:49:08;25.80;42.30
36652;DHT22;53334;51.976;20.144;2023-03-23T15:51:45;25.80;42.50
36652;DHT22;53334;51.976;20.144;2023-03-23T15:54:17;25.80;42.40
36652;DHT22;53334;51.976;20.144;2023-03-23T15:56:54;25.80;42.50
36652;DHT22;53334;51.976;20.144;2023-03-23T15:59:29;25.80;42.80
36652;DHT22;53334;51.976;20.144;2023-03-23T16:02:16;25.80;42.70
36652;DHT22;53334;51.976;20.144;2023-03-23T16:04:53;25.80;43.60
36652;DHT22;53334;51.976;20.144;2023-03-23T16:07:29;25.80;42.90
36652;DHT22;53334;51.976;20.144;2023-03-23T16:10:15;25.80;42.90
36652;DHT22;53334;51.976;20.144;2023-03-23T16:12:51;25.80;43.00
36652;DHT22;53334;51.976;20.144;2023-03-23T16:15:26;25.80;43.30
36652;DHT22;53334;51.976;20.144;2023-03-23T16:18:02;25.80;43.40
36652;DHT22;53334;51.976;20.144;2023-03-23T16:20:44;25.80;43.40
36652;DHT22;53334;51.976;20.144;2023-03-23T16:23:21;25.80;43.80
36652;DHT22;53334;51.976;20.144;2023-03-23T16:26:09;25.80;43.90
36652;DHT22;53334;51.976;20.144;2023-03-23T16:28:50;25.80;44.10
36652;DHT22;53334;51.976;20.144;2023-03-23T16:31:44;25.80;44.30
36652;DHT22;53334;51.976;20.144;2023-03-23T16:34:20;25.80;44.40
36652;DHT22;53334;51.976;20.144;2023-03-23T16:37:05;25.80;44.50